sensor_id;sensor_type;location;lat;lon;timestamp;P1;durP1;ratioP1;P2;durP2;ratioP2
18249;SDS011;27980;52.126;5.572;2023-07-29T00:00:43;1.77;;;1.58;;
18249;SDS011;27980;52.126;5.572;2023-07-29T00:03:09;1.85;;;1.35;;
18249;SDS011;27980;52.126;5.572;2023-07-29T00:05:36;2.05;;;1.60;;
18249;SDS011;27980;52.126;5.572;2023-07-29T00:08:03;2.28;;;1.40;;
18249;SDS011;27980;52.126;5.572;2023-07-29T00:10:30;1.48;;;1.27;;
18249;SDS011;27980;52.126;5.572;2023-07-29T00:12:57;2.42;;;1.85;;
18249;SDS011;27980;52.126;5.572;2023-07-29T00:15:25;2.78;;;1.50;;
18249;SDS011;27980;52.126;5.572;2023-07-29T00:17:52;2.63;;;1.65;;
18249;SDS011;27980;52.126;5.572;2023-07-29T00:20:18;2.03;;;1.38;;
18249;SDS011;27980;52.126;5.572;2023-07-29T00:22:47;5.22;;;1.40;;
18249;SDS011;27980;52.126;5.572;2023-07-29T00:25:15;3.28;;;1.75;;
18249;SDS011;27980;52.126;5.572;2023-07-29T00:27:41;3.28;;;1.70;;
18249;SDS011;27980;52.126;5.572;2023-07-29T00:30:08;2.45;;;1.48;;
18249;SDS011;27980;52.126;5.572;2023-07-29T00:32:36;1.77;;;1.60;;
18249;SDS011;27980;52.126;5.572;2023-07-29T00:35:04;4.22;;;1.40;;
18249;SDS011;27980;52.126;5.572;2023-07-29T00:37:30;1.80;;;1.42;;
18249;SDS011;27980;52.126;5.572;2023-07-29T00:39:57;2.05;;;1.52;;
18249;SDS011;27980;52.126;5.572;2023-07-29T00:42:24;1.67;;;1.52;;
18249;SDS011;27980;52.126;5.572;2023-07-29T00:44:51;2.20;;;1.40;;
18249;SDS011;27980;52.126;5.572;2023-07-29T00:47:17;2.67;;;1.30;;
18249;SDS011;27980;52.126;5.572;2023-07-29T00:49:45;2.42;;;1.50;;
18249;SDS011;27980;52.126;5.572;2023-07-29T00:52:12;1.75;;;1.60;;
18249;SDS011;27980;52.126;5.572;2023-07-29T00:54:39;1.58;;;1.33;;
18249;SDS011;27980;52.126;5.572;2023-07-29T00:57:05;1.98;;;1.33;;
18249;SDS011;27980;52.126;5.572;2023-07-29T00:59:32;2.08;;;1.42;;
18249;SDS011;27980;52.126;5.572;2023-07-29T01:01:59;1.92;;;1.50;;
18249;SDS011;27980;52.126;5.572;2023-07-29T01:04:26;2.33;;;1.70;;
18249;SDS011;27980;52.126;5.572;2023-07-29T01:06:57;2.53;;;1.35;;
18249;SDS011;27980;52.126;5.572;2023-07-29T01:09:25;3.55;;;1.73;;
18249;SDS011;27980;52.126;5.572;2023-07-29T01:11:55;2.42;;;1.63;;
18249;SDS011;27980;52.126;5.572;2023-07-29T01:14:26;3.78;;;1.75;;
18249;SDS011;27980;52.126;5.572;2023-07-29T01:16:56;1.67;;;1.55;;
18249;SDS011;27980;52.126;5.572;2023-07-29T01:19:36;2.75;;;1.63;;
18249;SDS011;27980;52.126;5.572;2023-07-29T01:22:07;1.73;;;1.33;;
18249;SDS011;27980;52.126;5.572;2023-07-29T01:24:38;2.83;;;2.00;;
18249;SDS011;27980;52.126;5.572;2023-07-29T01:27:05;3.10;;;1.83;;
18249;SDS011;27980;52.126;5.572;2023-07-29T01:29:31;3.47;;;1.70;;
18249;SDS011;27980;52.126;5.572;2023-07-29T01:34:41;2.15;;;1.98;;
18249;SDS011;27980;52.126;5.572;2023-07-29T01:37:12;2.55;;;1.95;;
18249;SDS011;27980;52.126;5.572;2023-07-29T01:39:42;2.42;;;1.90;;
18249;SDS011;27980;52.126;5.572;2023-07-29T01:42:10;3.22;;;1.90;;
18249;SDS011;27980;52.126;5.572;2023-07-29T01:44:37;2.85;;;2.03;;
18249;SDS011;27980;52.126;5.572;2023-07-29T01:47:04;4.97;;;2.22;;
18249;SDS011;27980;52.126;5.572;2023-07-29T01:49:30;2.20;;;1.77;;
18249;SDS011;27980;52.126;5.572;2023-07-29T01:51:58;2.45;;;1.92;;
18249;SDS011;27980;52.126;5.572;2023-07-29T01:54:25;2.60;;;1.88;;
18249;SDS011;27980;52.126;5.572;2023-07-29T01:56:53;3.00;;;2.03;;
18249;SDS011;27980;52.126;5.572;2023-07-29T01:59:19;3.40;;;2.33;;
18249;SDS011;27980;52.126;5.572;2023-07-29T02:01:46;3.67;;;2.20;;
18249;SDS011;27980;52.126;5.572;2023-07-29T02:04:14;3.25;;;2.45;;
18249;SDS011;27980;52.126;5.572;2023-07-29T02:06:40;6.25;;;2.63;;
18249;SDS011;27980;52.126;5.572;2023-07-29T02:09:09;5.38;;;2.10;;
18249;SDS011;27980;52.126;5.572;2023-07-29T02:11:37;5.50;;;2.58;;
18249;SDS011;27980;52.126;5.572;2023-07-29T02:14:05;4.10;;;2.60;;
18249;SDS011;27980;52.126;5.572;2023-07-29T02:16:32;4.45;;;2.95;;
18249;SDS011;27980;52.126;5.572;2023-07-29T02:18:59;6.28;;;3.10;;
18249;SDS011;27980;52.126;5.572;2023-07-29T02:21:27;4.20;;;2.97;;
18249;SDS011;27980;52.126;5.572;2023-07-29T02:23:54;4.30;;;2.80;;
18249;SDS011;27980;52.126;5.572;2023-07-29T02:26:20;5.32;;;2.72;;
18249;SDS011;27980;52.126;5.572;2023-07-29T02:28:47;4.18;;;2.72;;
18249;SDS011;27980;52.126;5.572;2023-07-29T02:31:16;5.07;;;3.22;;
18249;SDS011;27980;52.126;5.572;2023-07-29T02:33:43;4.90;;;3.00;;
18249;SDS011;27980;52.126;5.572;2023-07-29T02:36:11;4.00;;;3.28;;
18249;SDS011;27980;52.126;5.572;2023-07-29T02:38:38;4.97;;;2.80;;
18249;SDS011;27980;52.126;5.572;2023-07-29T02:41:05;5.40;;;3.22;;
18249;SDS011;27980;52.126;5.572;2023-07-29T02:43:31;4.40;;;3.03;;
18249;SDS011;27980;52.126;5.572;2023-07-29T02:45:58;5.35;;;3.70;;
18249;SDS011;27980;52.126;5.572;2023-07-29T02:48:26;4.75;;;3.50;;
18249;SDS011;27980;52.126;5.572;2023-07-29T02:50:53;5.95;;;3.33;;
18249;SDS011;27980;52.126;5.572;2023-07-29T02:53:20;6.57;;;3.78;;
18249;SDS011;27980;52.126;5.572;2023-07-29T02:55:47;5.18;;;3.75;;
18249;SDS011;27980;52.126;5.572;2023-07-29T02:58:13;7.53;;;3.80;;
18249;SDS011;27980;52.126;5.572;2023-07-29T03:00:40;4.95;;;3.55;;
18249;SDS011;27980;52.126;5.572;2023-07-29T03:03:08;6.15;;;3.80;;
18249;SDS011;27980;52.126;5.572;2023-07-29T03:05:37;5.50;;;3.60;;
18249;SDS011;27980;52.126;5.572;2023-07-29T03:08:04;4.53;;;3.45;;
18249;SDS011;27980;52.126;5.572;2023-07-29T03:10:30;5.75;;;4.00;;
18249;SDS011;27980;52.126;5.572;2023-07-29T03:12:57;5.50;;;3.50;;
18249;SDS011;27980;52.126;5.572;2023-07-29T03:15:23;7.18;;;3.53;;
18249;SDS011;27980;52.126;5.572;2023-07-29T03:17:51;4.18;;;2.95;;
18249;SDS011;27980;52.126;5.572;2023-07-29T03:20:18;6.93;;;3.70;;
18249;SDS011;27980;52.126;5.572;2023-07-29T03:22:48;6.68;;;3.40;;
18249;SDS011;27980;52.126;5.572;2023-07-29T03:25:15;5.90;;;3.85;;
18249;SDS011;27980;52.126;5.572;2023-07-29T03:27:41;6.65;;;3.60;;
18249;SDS011;27980;52.126;5.572;2023-07-29T03:30:08;6.60;;;3.67;;
18249;SDS011;27980;52.126;5.572;2023-07-29T03:32:35;6.18;;;3.33;;
18249;SDS011;27980;52.126;5.572;2023-07-29T03:35:01;5.60;;;3.67;;
18249;SDS011;27980;52.126;5.572;2023-07-29T03:37:29;4.82;;;2.97;;
18249;SDS011;27980;52.126;5.572;2023-07-29T03:39:58;7.90;;;3.05;;
18249;SDS011;27980;52.126;5.572;2023-07-29T03:42:26;4.75;;;3.25;;
18249;SDS011;27980;52.126;5.572;2023-07-29T03:44:53;5.72;;;2.85;;
18249;SDS011;27980;52.126;5.572;2023-07-29T03:47:19;4.65;;;3.28;;
18249;SDS011;27980;52.126;5.572;2023-07-29T03:49:46;3.78;;;2.85;;
18249;SDS011;27980;52.126;5.572;2023-07-29T03:52:13;6.28;;;3.55;;
18249;SDS011;27980;52.126;5.572;2023-07-29T03:54:39;5.45;;;3.17;;
18249;SDS011;27980;52.126;5.572;2023-07-29T03:57:08;4.68;;;3.20;;
18249;SDS011;27980;52.126;5.572;2023-07-29T03:59:34;4.90;;;2.95;;
18249;SDS011;27980;52.126;5.572;2023-07-29T04:02:01;4.10;;;2.90;;
18249;SDS011;27980;52.126;5.572;2023-07-29T04:04:28;6.20;;;3.65;;
18249;SDS011;27980;52.126;5.572;2023-07-29T04:06:55;4.93;;;2.70;;
18249;SDS011;27980;52.126;5.572;2023-07-29T04:09:24;5.80;;;3.25;;
18249;SDS011;27980;52.126;5.572;2023-07-29T04:11:51;4.93;;;2.92;;
18249;SDS011;27980;52.126;5.572;2023-07-29T04:14:20;5.28;;;3.08;;
18249;SDS011;27980;52.126;5.572;2023-07-29T04:16:47;4.30;;;2.85;;
18249;SDS011;27980;52.126;5.572;2023-07-29T04:19:14;5.68;;;3.13;;
18249;SDS011;27980;52.126;5.572;2023-07-29T04:21:41;3.85;;;2.90;;
18249;SDS011;27980;52.126;5.572;2023-07-29T04:24:08;3.95;;;2.80;;
18249;SDS011;27980;52.126;5.572;2023-07-29T04:26:35;4.05;;;2.65;;
18249;SDS011;27980;52.126;5.572;2023-07-29T04:29:01;5.03;;;3.05;;
18249;SDS011;27980;52.126;5.572;2023-07-29T04:31:30;4.85;;;2.78;;
18249;SDS011;27980;52.126;5.572;2023-07-29T04:33:56;4.43;;;2.70;;
18249;SDS011;27980;52.126;5.572;2023-07-29T04:36:25;3.40;;;2.58;;
18249;SDS011;27980;52.126;5.572;2023-07-29T04:38:51;3.95;;;2.42;;
18249;SDS011;27980;52.126;5.572;2023-07-29T04:41:18;5.53;;;2.75;;
18249;SDS011;27980;52.126;5.572;2023-07-29T04:43:44;4.47;;;2.90;;
18249;SDS011;27980;52.126;5.572;2023-07-29T04:46:11;3.05;;;2.33;;
18249;SDS011;27980;52.126;5.572;2023-07-29T04:48:39;3.05;;;2.30;;
18249;SDS011;27980;52.126;5.572;2023-07-29T04:51:06;3.05;;;2.53;;
18249;SDS011;27980;52.126;5.572;2023-07-29T04:53:33;3.58;;;2.17;;
18249;SDS011;27980;52.126;5.572;2023-07-29T04:56:00;5.45;;;2.75;;
18249;SDS011;27980;52.126;5.572;2023-07-29T04:58:27;3.05;;;2.15;;
18249;SDS011;27980;52.126;5.572;2023-07-29T05:00:55;8.20;;;2.78;;
18249;SDS011;27980;52.126;5.572;2023-07-29T05:03:22;2.25;;;2.00;;
18249;SDS011;27980;52.126;5.572;2023-07-29T05:05:50;5.15;;;2.38;;
18249;SDS011;27980;52.126;5.572;2023-07-29T05:08:18;4.82;;;2.40;;
18249;SDS011;27980;52.126;5.572;2023-07-29T05:10:48;5.40;;;2.30;;
18249;SDS011;27980;52.126;5.572;2023-07-29T05:13:15;2.90;;;1.90;;
18249;SDS011;27980;52.126;5.572;2023-07-29T05:15:43;3.45;;;2.22;;
18249;SDS011;27980;52.126;5.572;2023-07-29T05:18:10;3.50;;;2.20;;
18249;SDS011;27980;52.126;5.572;2023-07-29T05:20:39;3.47;;;2.10;;
18249;SDS011;27980;52.126;5.572;2023-07-29T05:23:07;4.40;;;2.40;;
18249;SDS011;27980;52.126;5.572;2023-07-29T05:25:33;5.47;;;2.80;;
18249;SDS011;27980;52.126;5.572;2023-07-29T05:28:00;3.95;;;2.13;;
18249;SDS011;27980;52.126;5.572;2023-07-29T05:30:27;2.65;;;1.90;;
18249;SDS011;27980;52.126;5.572;2023-07-29T05:32:56;3.78;;;2.30;;
18249;SDS011;27980;52.126;5.572;2023-07-29T05:35:22;2.50;;;1.73;;
18249;SDS011;27980;52.126;5.572;2023-07-29T05:37:49;4.20;;;2.20;;
18249;SDS011;27980;52.126;5.572;2023-07-29T05:40:17;3.67;;;2.08;;
18249;SDS011;27980;52.126;5.572;2023-07-29T05:42:44;3.78;;;1.80;;
18249;SDS011;27980;52.126;5.572;2023-07-29T05:45:11;4.88;;;2.58;;
18249;SDS011;27980;52.126;5.572;2023-07-29T05:47:38;5.80;;;2.55;;
18249;SDS011;27980;52.126;5.572;2023-07-29T05:50:05;4.97;;;2.83;;
18249;SDS011;27980;52.126;5.572;2023-07-29T05:52:32;2.17;;;1.95;;
18249;SDS011;27980;52.126;5.572;2023-07-29T05:54:59;3.03;;;2.33;;
18249;SDS011;27980;52.126;5.572;2023-07-29T05:57:27;7.10;;;2.47;;
18249;SDS011;27980;52.126;5.572;2023-07-29T05:59:54;3.67;;;2.60;;
18249;SDS011;27980;52.126;5.572;2023-07-29T06:02:20;4.95;;;2.72;;
18249;SDS011;27980;52.126;5.572;2023-07-29T06:04:47;3.50;;;2.33;;
18249;SDS011;27980;52.126;5.572;2023-07-29T06:07:15;3.60;;;2.33;;
18249;SDS011;27980;52.126;5.572;2023-07-29T06:09:41;3.97;;;2.40;;
18249;SDS011;27980;52.126;5.572;2023-07-29T06:12:08;3.38;;;2.60;;
18249;SDS011;27980;52.126;5.572;2023-07-29T06:14:36;4.97;;;2.78;;
18249;SDS011;27980;52.126;5.572;2023-07-29T06:17:03;5.68;;;2.50;;
18249;SDS011;27980;52.126;5.572;2023-07-29T06:19:29;3.95;;;2.80;;
18249;SDS011;27980;52.126;5.572;2023-07-29T06:21:56;3.78;;;2.50;;
18249;SDS011;27980;52.126;5.572;2023-07-29T06:24:22;3.33;;;2.60;;
18249;SDS011;27980;52.126;5.572;2023-07-29T06:26:49;2.83;;;2.35;;
18249;SDS011;27980;52.126;5.572;2023-07-29T06:29:15;3.67;;;2.42;;
18249;SDS011;27980;52.126;5.572;2023-07-29T06:31:43;4.05;;;2.90;;
18249;SDS011;27980;52.126;5.572;2023-07-29T06:34:10;3.47;;;2.40;;
18249;SDS011;27980;52.126;5.572;2023-07-29T06:36:36;4.75;;;2.33;;
18249;SDS011;27980;52.126;5.572;2023-07-29T06:39:03;4.95;;;2.67;;
18249;SDS011;27980;52.126;5.572;2023-07-29T06:41:29;4.75;;;2.50;;
18249;SDS011;27980;52.126;5.572;2023-07-29T06:43:56;3.40;;;2.58;;
18249;SDS011;27980;52.126;5.572;2023-07-29T06:46:22;3.90;;;3.15;;
18249;SDS011;27980;52.126;5.572;2023-07-29T06:48:52;3.95;;;2.58;;
18249;SDS011;27980;52.126;5.572;2023-07-29T06:51:18;5.05;;;2.75;;
18249;SDS011;27980;52.126;5.572;2023-07-29T06:53:45;4.03;;;2.65;;
18249;SDS011;27980;52.126;5.572;2023-07-29T06:56:12;3.85;;;2.80;;
18249;SDS011;27980;52.126;5.572;2023-07-29T06:58:38;4.47;;;2.50;;
18249;SDS011;27980;52.126;5.572;2023-07-29T07:01:05;7.30;;;2.97;;
18249;SDS011;27980;52.126;5.572;2023-07-29T07:03:32;4.55;;;2.55;;
18249;SDS011;27980;52.126;5.572;2023-07-29T07:05:59;4.15;;;2.92;;
18249;SDS011;27980;52.126;5.572;2023-07-29T07:08:26;3.85;;;2.67;;
18249;SDS011;27980;52.126;5.572;2023-07-29T07:10:53;6.50;;;2.72;;
18249;SDS011;27980;52.126;5.572;2023-07-29T07:13:20;3.15;;;2.55;;
18249;SDS011;27980;52.126;5.572;2023-07-29T07:15:46;5.55;;;3.15;;
18249;SDS011;27980;52.126;5.572;2023-07-29T07:18:13;5.15;;;2.88;;
18249;SDS011;27980;52.126;5.572;2023-07-29T07:20:41;3.10;;;2.75;;
18249;SDS011;27980;52.126;5.572;2023-07-29T07:34:46;6.25;;;3.53;;
18249;SDS011;27980;52.126;5.572;2023-07-29T07:37:25;5.18;;;3.72;;
18249;SDS011;27980;52.126;5.572;2023-07-29T07:39:53;3.80;;;3.30;;
18249;SDS011;27980;52.126;5.572;2023-07-29T07:42:33;5.95;;;4.65;;
18249;SDS011;27980;52.126;5.572;2023-07-29T07:45:14;4.82;;;3.67;;
18249;SDS011;27980;52.126;5.572;2023-07-29T07:47:43;5.22;;;4.55;;
18249;SDS011;27980;52.126;5.572;2023-07-29T07:50:29;5.18;;;4.13;;
18249;SDS011;27980;52.126;5.572;2023-07-29T07:52:56;4.82;;;3.75;;
18249;SDS011;27980;52.126;5.572;2023-07-29T07:55:23;5.18;;;3.53;;
18249;SDS011;27980;52.126;5.572;2023-07-29T07:57:50;7.63;;;3.25;;
18249;SDS011;27980;52.126;5.572;2023-07-29T08:00:26;5.22;;;4.20;;
18249;SDS011;27980;52.126;5.572;2023-07-29T08:02:52;4.07;;;3.38;;
18249;SDS011;27980;52.126;5.572;2023-07-29T08:05:18;5.72;;;3.35;;
18249;SDS011;27980;52.126;5.572;2023-07-29T08:07:46;4.45;;;3.50;;
18249;SDS011;27980;52.126;5.572;2023-07-29T08:10:13;5.40;;;3.35;;
18249;SDS011;27980;52.126;5.572;2023-07-29T08:12:39;4.43;;;2.97;;
18249;SDS011;27980;52.126;5.572;2023-07-29T08:15:06;6.43;;;3.30;;
18249;SDS011;27980;52.126;5.572;2023-07-29T08:17:33;3.28;;;2.55;;
18249;SDS011;27980;52.126;5.572;2023-07-29T08:20:02;3.50;;;2.90;;
18249;SDS011;27980;52.126;5.572;2023-07-29T08:22:29;3.45;;;2.80;;
18249;SDS011;27980;52.126;5.572;2023-07-29T08:24:56;4.18;;;2.85;;
18249;SDS011;27980;52.126;5.572;2023-07-29T08:27:23;4.22;;;2.88;;
18249;SDS011;27980;52.126;5.572;2023-07-29T08:29:49;3.80;;;2.80;;
18249;SDS011;27980;52.126;5.572;2023-07-29T08:32:16;2.67;;;2.47;;
18249;SDS011;27980;52.126;5.572;2023-07-29T08:34:45;3.13;;;1.88;;
18249;SDS011;27980;52.126;5.572;2023-07-29T08:37:12;1.65;;;1.55;;
18249;SDS011;27980;52.126;5.572;2023-07-29T08:39:38;4.13;;;2.42;;
18249;SDS011;27980;52.126;5.572;2023-07-29T08:42:09;3.10;;;1.58;;
18249;SDS011;27980;52.126;5.572;2023-07-29T08:44:39;1.70;;;1.50;;
18249;SDS011;27980;52.126;5.572;2023-07-29T08:47:06;2.05;;;1.38;;
18249;SDS011;27980;52.126;5.572;2023-07-29T08:49:33;1.70;;;1.50;;
18249;SDS011;27980;52.126;5.572;2023-07-29T08:52:00;2.28;;;2.00;;
18249;SDS011;27980;52.126;5.572;2023-07-29T08:54:27;2.58;;;1.75;;
18249;SDS011;27980;52.126;5.572;2023-07-29T08:56:53;4.70;;;1.48;;
18249;SDS011;27980;52.126;5.572;2023-07-29T08:59:21;2.30;;;1.50;;
18249;SDS011;27980;52.126;5.572;2023-07-29T09:01:48;3.22;;;1.65;;
18249;SDS011;27980;52.126;5.572;2023-07-29T09:04:15;1.83;;;1.60;;
18249;SDS011;27980;52.126;5.572;2023-07-29T09:06:42;1.40;;;1.30;;
18249;SDS011;27980;52.126;5.572;2023-07-29T09:09:12;2.85;;;1.70;;
18249;SDS011;27980;52.126;5.572;2023-07-29T09:11:38;1.50;;;1.40;;
18249;SDS011;27980;52.126;5.572;2023-07-29T09:14:05;2.15;;;1.98;;
18249;SDS011;27980;52.126;5.572;2023-07-29T09:16:33;3.78;;;1.70;;
18249;SDS011;27980;52.126;5.572;2023-07-29T09:19:00;2.80;;;2.10;;
18249;SDS011;27980;52.126;5.572;2023-07-29T09:21:27;2.33;;;2.10;;
18249;SDS011;27980;52.126;5.572;2023-07-29T09:23:54;2.50;;;2.30;;
18249;SDS011;27980;52.126;5.572;2023-07-29T09:26:24;2.35;;;2.15;;
18249;SDS011;27980;52.126;5.572;2023-07-29T09:28:52;2.35;;;2.03;;
18249;SDS011;27980;52.126;5.572;2023-07-29T09:31:18;4.35;;;1.90;;
18249;SDS011;27980;52.126;5.572;2023-07-29T09:33:47;5.00;;;1.92;;
18249;SDS011;27980;52.126;5.572;2023-07-29T09:36:14;5.05;;;2.22;;
18249;SDS011;27980;52.126;5.572;2023-07-29T09:38:40;3.65;;;2.42;;
18249;SDS011;27980;52.126;5.572;2023-07-29T09:41:07;3.45;;;2.25;;
18249;SDS011;27980;52.126;5.572;2023-07-29T09:43:34;2.55;;;1.80;;
18249;SDS011;27980;52.126;5.572;2023-07-29T09:46:00;3.50;;;1.88;;
18249;SDS011;27980;52.126;5.572;2023-07-29T09:48:27;2.40;;;1.70;;
18249;SDS011;27980;52.126;5.572;2023-07-29T09:50:56;2.22;;;2.00;;
18249;SDS011;27980;52.126;5.572;2023-07-29T09:53:22;1.65;;;1.55;;
18249;SDS011;27980;52.126;5.572;2023-07-29T09:55:49;3.53;;;2.00;;
18249;SDS011;27980;52.126;5.572;2023-07-29T09:58:15;1.98;;;1.80;;
18249;SDS011;27980;52.126;5.572;2023-07-29T10:00:45;2.25;;;2.05;;
18249;SDS011;27980;52.126;5.572;2023-07-29T10:03:12;2.20;;;2.00;;
18249;SDS011;27980;52.126;5.572;2023-07-29T10:05:39;3.10;;;2.28;;
18249;SDS011;27980;52.126;5.572;2023-07-29T10:08:07;2.30;;;2.10;;
18249;SDS011;27980;52.126;5.572;2023-07-29T10:10:34;2.22;;;1.95;;
18249;SDS011;27980;52.126;5.572;2023-07-29T10:13:01;2.10;;;1.90;;
18249;SDS011;27980;52.126;5.572;2023-07-29T10:15:28;2.72;;;2.50;;
18249;SDS011;27980;52.126;5.572;2023-07-29T10:17:55;3.28;;;2.10;;
18249;SDS011;27980;52.126;5.572;2023-07-29T10:20:22;2.25;;;1.90;;
18249;SDS011;27980;52.126;5.572;2023-07-29T10:22:48;3.05;;;2.20;;
18249;SDS011;27980;52.126;5.572;2023-07-29T10:25:19;1.88;;;1.77;;
18249;SDS011;27980;52.126;5.572;2023-07-29T10:27:49;2.75;;;2.20;;
18249;SDS011;27980;52.126;5.572;2023-07-29T10:30:18;2.58;;;2.30;;
18249;SDS011;27980;52.126;5.572;2023-07-29T10:32:45;5.03;;;2.20;;
18249;SDS011;27980;52.126;5.572;2023-07-29T10:35:11;2.85;;;2.42;;
18249;SDS011;27980;52.126;5.572;2023-07-29T10:37:38;2.63;;;2.42;;
18249;SDS011;27980;52.126;5.572;2023-07-29T10:40:06;2.78;;;2.20;;
18249;SDS011;27980;52.126;5.572;2023-07-29T10:42:34;4.20;;;2.70;;
18249;SDS011;27980;52.126;5.572;2023-07-29T10:45:06;2.72;;;2.50;;
18249;SDS011;27980;52.126;5.572;2023-07-29T10:47:43;3.33;;;2.30;;
18249;SDS011;27980;52.126;5.572;2023-07-29T10:50:16;2.92;;;2.40;;
18249;SDS011;27980;52.126;5.572;2023-07-29T10:52:43;3.25;;;2.63;;
18249;SDS011;27980;52.126;5.572;2023-07-29T10:55:23;2.47;;;1.73;;
18249;SDS011;27980;52.126;5.572;2023-07-29T10:57:51;1.88;;;1.73;;
18249;SDS011;27980;52.126;5.572;2023-07-29T11:00:19;2.40;;;2.20;;
18249;SDS011;27980;52.126;5.572;2023-07-29T11:02:56;2.20;;;2.00;;
18249;SDS011;27980;52.126;5.572;2023-07-29T11:05:22;2.13;;;1.95;;
18249;SDS011;27980;52.126;5.572;2023-07-29T11:07:49;1.75;;;1.50;;
18249;SDS011;27980;52.126;5.572;2023-07-29T11:10:15;2.55;;;2.22;;
18249;SDS011;27980;52.126;5.572;2023-07-29T11:12:43;2.63;;;2.10;;
18249;SDS011;27980;52.126;5.572;2023-07-29T11:15:16;2.03;;;1.83;;
18249;SDS011;27980;52.126;5.572;2023-07-29T11:17:43;1.38;;;1.27;;
18249;SDS011;27980;52.126;5.572;2023-07-29T11:20:10;1.30;;;1.20;;
18249;SDS011;27980;52.126;5.572;2023-07-29T11:22:37;2.28;;;1.50;;
18249;SDS011;27980;52.126;5.572;2023-07-29T11:25:04;3.13;;;2.15;;
18249;SDS011;27980;52.126;5.572;2023-07-29T11:27:31;1.70;;;1.58;;
18249;SDS011;27980;52.126;5.572;2023-07-29T11:29:58;1.73;;;1.63;;
18249;SDS011;27980;52.126;5.572;2023-07-29T11:32:27;3.50;;;1.83;;
18249;SDS011;27980;52.126;5.572;2023-07-29T11:34:53;2.38;;;1.40;;
18249;SDS011;27980;52.126;5.572;2023-07-29T11:37:20;2.22;;;1.67;;
18249;SDS011;27980;52.126;5.572;2023-07-29T11:39:47;4.47;;;1.70;;
18249;SDS011;27980;52.126;5.572;2023-07-29T11:42:13;1.58;;;1.48;;
18249;SDS011;27980;52.126;5.572;2023-07-29T11:44:40;1.88;;;1.70;;
18249;SDS011;27980;52.126;5.572;2023-07-29T11:47:06;2.75;;;1.60;;
18249;SDS011;27980;52.126;5.572;2023-07-29T11:49:35;2.17;;;1.52;;
18249;SDS011;27980;52.126;5.572;2023-07-29T11:52:02;5.20;;;2.47;;
18249;SDS011;27980;52.126;5.572;2023-07-29T11:54:29;2.03;;;1.75;;
18249;SDS011;27980;52.126;5.572;2023-07-29T11:56:56;1.95;;;1.67;;
18249;SDS011;27980;52.126;5.572;2023-07-29T11:59:23;2.35;;;1.88;;
18249;SDS011;27980;52.126;5.572;2023-07-29T12:01:49;3.13;;;2.00;;
18249;SDS011;27980;52.126;5.572;2023-07-29T12:04:16;2.70;;;2.40;;
18249;SDS011;27980;52.126;5.572;2023-07-29T12:06:44;3.47;;;3.15;;
18249;SDS011;27980;52.126;5.572;2023-07-29T12:09:10;3.38;;;2.35;;
18249;SDS011;27980;52.126;5.572;2023-07-29T12:11:38;2.80;;;2.50;;
18249;SDS011;27980;52.126;5.572;2023-07-29T12:14:06;3.60;;;2.78;;
18249;SDS011;27980;52.126;5.572;2023-07-29T12:16:40;2.90;;;2.33;;
18249;SDS011;27980;52.126;5.572;2023-07-29T12:19:06;2.28;;;2.08;;
18249;SDS011;27980;52.126;5.572;2023-07-29T12:21:33;2.17;;;1.98;;
18249;SDS011;27980;52.126;5.572;2023-07-29T12:24:03;1.70;;;1.60;;
18249;SDS011;27980;52.126;5.572;2023-07-29T12:26:31;2.35;;;2.15;;
18249;SDS011;27980;52.126;5.572;2023-07-29T12:28:58;1.90;;;1.80;;
18249;SDS011;27980;52.126;5.572;2023-07-29T12:31:30;2.20;;;2.00;;
18249;SDS011;27980;52.126;5.572;2023-07-29T12:33:57;2.20;;;2.00;;
18249;SDS011;27980;52.126;5.572;2023-07-29T12:36:27;2.20;;;1.50;;
18249;SDS011;27980;52.126;5.572;2023-07-29T12:38:53;1.77;;;1.60;;
18249;SDS011;27980;52.126;5.572;2023-07-29T12:41:21;2.35;;;1.50;;
18249;SDS011;27980;52.126;5.572;2023-07-29T12:43:47;1.60;;;1.50;;
18249;SDS011;27980;52.126;5.572;2023-07-29T12:46:14;2.13;;;1.92;;
18249;SDS011;27980;52.126;5.572;2023-07-29T12:48:40;1.75;;;1.38;;
18249;SDS011;27980;52.126;5.572;2023-07-29T12:51:07;3.38;;;1.30;;
18249;SDS011;27980;52.126;5.572;2023-07-29T12:53:33;1.08;;;1.00;;
18249;SDS011;27980;52.126;5.572;2023-07-29T12:56:00;2.03;;;1.50;;
18249;SDS011;27980;52.126;5.572;2023-07-29T12:58:28;1.30;;;1.20;;
18249;SDS011;27980;52.126;5.572;2023-07-29T13:00:55;1.23;;;1.00;;
18249;SDS011;27980;52.126;5.572;2023-07-29T13:03:22;1.10;;;1.05;;
18249;SDS011;27980;52.126;5.572;2023-07-29T13:05:48;1.95;;;1.23;;
18249;SDS011;27980;52.126;5.572;2023-07-29T13:08:14;1.30;;;1.20;;
18249;SDS011;27980;52.126;5.572;2023-07-29T13:10:41;1.73;;;0.85;;
18249;SDS011;27980;52.126;5.572;2023-07-29T13:13:07;2.63;;;1.00;;
18249;SDS011;27980;52.126;5.572;2023-07-29T13:15:35;0.70;;;0.63;;
18249;SDS011;27980;52.126;5.572;2023-07-29T13:18:02;0.90;;;0.90;;
18249;SDS011;27980;52.126;5.572;2023-07-29T13:20:29;1.10;;;1.00;;
18249;SDS011;27980;52.126;5.572;2023-07-29T13:22:55;1.00;;;0.90;;
18249;SDS011;27980;52.126;5.572;2023-07-29T13:25:24;0.85;;;0.85;;
18249;SDS011;27980;52.126;5.572;2023-07-29T13:27:52;1.05;;;0.95;;
18249;SDS011;27980;52.126;5.572;2023-07-29T13:30:18;0.82;;;0.82;;
18249;SDS011;27980;52.126;5.572;2023-07-29T13:32:46;1.00;;;1.00;;
18249;SDS011;27980;52.126;5.572;2023-07-29T13:35:12;1.30;;;1.20;;
18249;SDS011;27980;52.126;5.572;2023-07-29T13:37:39;1.90;;;1.23;;
18249;SDS011;27980;52.126;5.572;2023-07-29T13:40:06;1.52;;;0.82;;
18249;SDS011;27980;52.126;5.572;2023-07-29T13:42:32;1.10;;;1.00;;
18249;SDS011;27980;52.126;5.572;2023-07-29T13:44:59;1.27;;;1.17;;
18249;SDS011;27980;52.126;5.572;2023-07-29T13:47:25;3.03;;;1.20;;
18249;SDS011;27980;52.126;5.572;2023-07-29T13:49:55;1.77;;;1.30;;
18249;SDS011;27980;52.126;5.572;2023-07-29T13:52:22;1.88;;;1.63;;
18249;SDS011;27980;52.126;5.572;2023-07-29T13:54:48;2.00;;;1.77;;
18249;SDS011;27980;52.126;5.572;2023-07-29T13:57:16;1.50;;;1.40;;
18249;SDS011;27980;52.126;5.572;2023-07-29T13:59:43;4.38;;;2.33;;
18249;SDS011;27980;52.126;5.572;2023-07-29T14:02:09;1.45;;;1.35;;
18249;SDS011;27980;52.126;5.572;2023-07-29T14:04:35;2.80;;;1.88;;
18249;SDS011;27980;52.126;5.572;2023-07-29T14:07:04;2.05;;;1.70;;
18249;SDS011;27980;52.126;5.572;2023-07-29T14:09:30;1.92;;;1.63;;
18249;SDS011;27980;52.126;5.572;2023-07-29T14:11:56;3.20;;;1.80;;
18249;SDS011;27980;52.126;5.572;2023-07-29T14:14:23;2.40;;;1.95;;
18249;SDS011;27980;52.126;5.572;2023-07-29T14:16:50;2.10;;;1.80;;
18249;SDS011;27980;52.126;5.572;2023-07-29T14:19:16;3.80;;;1.95;;
18249;SDS011;27980;52.126;5.572;2023-07-29T14:21:43;2.20;;;2.00;;
18249;SDS011;27980;52.126;5.572;2023-07-29T14:24:11;2.65;;;2.13;;
18249;SDS011;27980;52.126;5.572;2023-07-29T14:26:37;2.78;;;1.83;;
18249;SDS011;27980;52.126;5.572;2023-07-29T14:29:04;1.80;;;1.70;;
18249;SDS011;27980;52.126;5.572;2023-07-29T14:31:30;2.13;;;1.52;;
18249;SDS011;27980;52.126;5.572;2023-07-29T14:33:57;1.83;;;1.48;;
18249;SDS011;27980;52.126;5.572;2023-07-29T14:36:24;2.10;;;1.50;;
18249;SDS011;27980;52.126;5.572;2023-07-29T14:38:50;1.05;;;0.95;;
18249;SDS011;27980;52.126;5.572;2023-07-29T14:41:18;2.83;;;1.27;;
18249;SDS011;27980;52.126;5.572;2023-07-29T14:43:45;1.98;;;1.77;;
18249;SDS011;27980;52.126;5.572;2023-07-29T14:46:13;3.45;;;1.42;;
18249;SDS011;27980;52.126;5.572;2023-07-29T14:48:39;1.27;;;1.17;;
18249;SDS011;27980;52.126;5.572;2023-07-29T14:51:06;2.97;;;1.30;;
18249;SDS011;27980;52.126;5.572;2023-07-29T14:53:33;1.73;;;1.33;;
18249;SDS011;27980;52.126;5.572;2023-07-29T14:55:59;1.20;;;1.10;;
18249;SDS011;27980;52.126;5.572;2023-07-29T14:58:27;2.63;;;1.23;;
18249;SDS011;27980;52.126;5.572;2023-07-29T15:00:55;1.15;;;0.90;;
18249;SDS011;27980;52.126;5.572;2023-07-29T15:03:21;1.55;;;0.98;;